sensor_id;sensor_type;location;lat;lon;timestamp;pressure;altitude;pressure_sealevel;temperature;humidity
6851;BME280;3464;42.728;23.296;2023-10-31T00:01:21;95455.84;;;21.78;41.69
6851;BME280;3464;42.728;23.296;2023-10-31T00:03:47;95456.47;;;21.71;41.69
6851;BME280;3464;42.728;23.296;2023-10-31T00:06:14;95458.70;;;21.67;41.57
6851;BME280;3464;42.728;23.296;2023-10-31T00:08:40;95452.95;;;21.60;41.43
6851;BME280;3464;42.728;23.296;2023-10-31T00:11:07;95447.45;;;21.73;41.18
6851;BME280;3464;42.728;23.296;2023-10-31T00:13:34;95442.84;;;21.69;41.03
6851;BME280;3464;42.728;23.296;2023-10-31T00:16:00;95437.02;;;21.65;41.09
6851;BME280;3464;42.728;23.296;2023-10-31T00:18:27;95437.72;;;21.70;41.11
6851;BME280;3464;42.728;23.296;2023-10-31T00:21:02;95440.38;;;21.66;41.21
6851;BME280;3464;42.728;23.296;2023-10-31T00:23:29;95436.95;;;21.54;41.49
6851;BME280;3464;42.728;23.296;2023-10-31T00:25:55;95439.05;;;21.69;41.43
6851;BME280;3464;42.728;23.296;2023-10-31T00:28:22;95434.31;;;21.69;41.26
6851;BME280;3464;42.728;23.296;2023-10-31T00:30:48;95431.59;;;21.61;41.25
6851;BME280;3464;42.728;23.296;2023-10-31T00:33:16;95429.13;;;21.58;41.42
6851;BME280;3464;42.728;23.296;2023-10-31T00:35:42;95427.98;;;21.54;41.30
6851;BME280;3464;42.728;23.296;2023-10-31T00:38:09;95429.75;;;21.52;41.43
6851;BME280;3464;42.728;23.296;2023-10-31T00:40:36;95430.56;;;21.25;42.01
6851;BME280;3464;42.728;23.296;2023-10-31T00:43:04;95423.95;;;21.47;41.71
6851;BME280;3464;42.728;23.296;2023-10-31T00:45:30;95426.08;;;21.33;42.09
6851;BME280;3464;42.728;23.296;2023-10-31T00:47:57;95432.50;;;21.18;42.13
6851;BME280;3464;42.728;23.296;2023-10-31T00:50:23;95425.34;;;21.29;42.26
6851;BME280;3464;42.728;23.296;2023-10-31T00:52:50;95416.08;;;21.52;41.86
6851;BME280;3464;42.728;23.296;2023-10-31T00:55:17;95406.16;;;21.55;41.82
6851;BME280;3464;42.728;23.296;2023-10-31T00:57:43;95408.95;;;21.35;42.03
6851;BME280;3464;42.728;23.296;2023-10-31T01:00:10;95407.97;;;21.39;42.17
6851;BME280;3464;42.728;23.296;2023-10-31T01:02:37;95406.89;;;21.72;41.62
6851;BME280;3464;42.728;23.296;2023-10-31T01:05:03;95403.03;;;21.73;41.34
6851;BME280;3464;42.728;23.296;2023-10-31T01:07:30;95398.70;;;21.76;41.56
6851;BME280;3464;42.728;23.296;2023-10-31T01:09:56;95401.14;;;21.64;41.59
6851;BME280;3464;42.728;23.296;2023-10-31T01:12:23;95394.03;;;21.60;41.78
6851;BME280;3464;42.728;23.296;2023-10-31T01:14:50;95388.42;;;21.62;41.75
6851;BME280;3464;42.728;23.296;2023-10-31T01:17:16;95382.38;;;21.78;41.76
6851;BME280;3464;42.728;23.296;2023-10-31T01:19:43;95386.22;;;21.78;41.68
6851;BME280;3464;42.728;23.296;2023-10-31T01:22:09;95392.84;;;21.71;41.81
6851;BME280;3464;42.728;23.296;2023-10-31T01:24:36;95388.73;;;21.80;41.84
6851;BME280;3464;42.728;23.296;2023-10-31T01:27:02;95388.82;;;22.15;40.96
6851;BME280;3464;42.728;23.296;2023-10-31T01:29:29;95386.20;;;21.65;41.57
6851;BME280;3464;42.728;23.296;2023-10-31T01:31:56;95386.98;;;22.06;41.03
6851;BME280;3464;42.728;23.296;2023-10-31T01:34:22;95382.94;;;21.86;41.09
6851;BME280;3464;42.728;23.296;2023-10-31T01:36:49;95381.07;;;21.39;42.13
6851;BME280;3464;42.728;23.296;2023-10-31T01:39:15;95376.03;;;20.95;43.24
6851;BME280;3464;42.728;23.296;2023-10-31T01:41:42;95381.07;;;21.39;42.66
6851;BME280;3464;42.728;23.296;2023-10-31T01:44:11;95384.59;;;21.48;42.40
6851;BME280;3464;42.728;23.296;2023-10-31T01:46:38;95385.91;;;21.34;42.51
6851;BME280;3464;42.728;23.296;2023-10-31T01:49:04;95382.36;;;21.39;42.67
6851;BME280;3464;42.728;23.296;2023-10-31T01:51:31;95384.03;;;21.12;42.89
6851;BME280;3464;42.728;23.296;2023-10-31T01:53:58;95381.81;;;21.15;43.18
6851;BME280;3464;42.728;23.296;2023-10-31T01:56:24;95368.09;;;21.44;42.39
6851;BME280;3464;42.728;23.296;2023-10-31T01:58:51;95373.60;;;21.19;42.75
6851;BME280;3464;42.728;23.296;2023-10-31T02:01:17;95382.67;;;21.29;42.59
6851;BME280;3464;42.728;23.296;2023-10-31T02:03:44;95378.75;;;21.31;42.58
6851;BME280;3464;42.728;23.296;2023-10-31T02:06:10;95377.08;;;20.87;43.66
6851;BME280;3464;42.728;23.296;2023-10-31T02:08:37;95372.33;;;21.19;42.82
6851;BME280;3464;42.728;23.296;2023-10-31T02:11:03;95372.81;;;21.31;42.58
6851;BME280;3464;42.728;23.296;2023-10-31T02:13:30;95363.48;;;21.01;43.12
6851;BME280;3464;42.728;23.296;2023-10-31T02:15:57;95368.13;;;21.29;42.70
6851;BME280;3464;42.728;23.296;2023-10-31T02:18:23;95361.34;;;21.41;42.60
6851;BME280;3464;42.728;23.296;2023-10-31T02:20:50;95367.47;;;21.37;42.52
6851;BME280;3464;42.728;23.296;2023-10-31T02:23:17;95363.31;;;21.20;42.55
6851;BME280;3464;42.728;23.296;2023-10-31T02:25:43;95359.02;;;21.21;42.57
6851;BME280;3464;42.728;23.296;2023-10-31T02:28:10;95363.00;;;20.88;43.18
6851;BME280;3464;42.728;23.296;2023-10-31T02:30:37;95356.66;;;21.01;42.99
6851;BME280;3464;42.728;23.296;2023-10-31T02:33:03;95369.23;;;20.64;43.74
6851;BME280;3464;42.728;23.296;2023-10-31T02:35:30;95368.80;;;20.79;43.50
6851;BME280;3464;42.728;23.296;2023-10-31T02:37:56;95362.75;;;20.81;42.89
6851;BME280;3464;42.728;23.296;2023-10-31T02:40:23;95359.86;;;20.64;43.30
6851;BME280;3464;42.728;23.296;2023-10-31T02:42:50;95362.45;;;20.77;42.88
6851;BME280;3464;42.728;23.296;2023-10-31T02:45:17;95365.91;;;20.61;43.25
6851;BME280;3464;42.728;23.296;2023-10-31T02:47:44;95371.53;;;20.59;43.11
6851;BME280;3464;42.728;23.296;2023-10-31T02:50:11;95369.37;;;20.59;42.97
6851;BME280;3464;42.728;23.296;2023-10-31T02:52:38;95371.70;;;20.37;43.15
6851;BME280;3464;42.728;23.296;2023-10-31T02:55:04;95376.64;;;20.43;43.13
6851;BME280;3464;42.728;23.296;2023-10-31T02:57:30;95370.61;;;19.98;43.59
6851;BME280;3464;42.728;23.296;2023-10-31T02:59:57;95373.75;;;20.40;42.97
6851;BME280;3464;42.728;23.296;2023-10-31T03:02:24;95376.17;;;20.45;42.74
6851;BME280;3464;42.728;23.296;2023-10-31T03:04:50;95363.39;;;20.14;43.28
6851;BME280;3464;42.728;23.296;2023-10-31T03:07:17;95376.14;;;20.15;43.17
6851;BME280;3464;42.728;23.296;2023-10-31T03:09:43;95375.13;;;20.22;43.05
6851;BME280;3464;42.728;23.296;2023-10-31T03:12:10;95365.84;;;20.01;43.38
6851;BME280;3464;42.728;23.296;2023-10-31T03:14:36;95379.52;;;20.00;43.32
6851;BME280;3464;42.728;23.296;2023-10-31T03:17:03;95366.16;;;20.06;43.10
6851;BME280;3464;42.728;23.296;2023-10-31T03:19:30;95361.90;;;20.05;43.17
6851;BME280;3464;42.728;23.296;2023-10-31T03:21:56;95365.69;;;19.91;43.55
6851;BME280;3464;42.728;23.296;2023-10-31T03:24:23;95358.06;;;19.89;43.57
6851;BME280;3464;42.728;23.296;2023-10-31T03:26:49;95358.03;;;19.90;43.64
6851;BME280;3464;42.728;23.296;2023-10-31T03:29:16;95347.80;;;19.75;44.06
6851;BME280;3464;42.728;23.296;2023-10-31T03:31:43;95335.56;;;19.54;44.29
6851;BME280;3464;42.728;23.296;2023-10-31T03:34:09;95344.64;;;19.48;44.38
6851;BME280;3464;42.728;23.296;2023-10-31T03:36:36;95341.14;;;19.69;44.14
6851;BME280;3464;42.728;23.296;2023-10-31T03:39:03;95341.77;;;19.77;43.69
6851;BME280;3464;42.728;23.296;2023-10-31T03:41:29;95342.58;;;19.79;43.69
6851;BME280;3464;42.728;23.296;2023-10-31T03:43:56;95350.67;;;19.78;43.70
6851;BME280;3464;42.728;23.296;2023-10-31T03:46:25;95355.74;;;19.80;43.58
6851;BME280;3464;42.728;23.296;2023-10-31T03:48:52;95349.13;;;19.73;43.54
6851;BME280;3464;42.728;23.296;2023-10-31T03:51:18;95353.98;;;19.66;43.66
6851;BME280;3464;42.728;23.296;2023-10-31T03:53:45;95355.80;;;19.61;44.16
6851;BME280;3464;42.728;23.296;2023-10-31T03:56:11;95352.28;;;19.65;43.63
6851;BME280;3464;42.728;23.296;2023-10-31T03:58:39;95354.30;;;19.70;43.75
6851;BME280;3464;42.728;23.296;2023-10-31T04:01:05;95355.16;;;19.86;43.42
6851;BME280;3464;42.728;23.296;2023-10-31T04:03:31;95348.08;;;19.80;43.39
6851;BME280;3464;42.728;23.296;2023-10-31T04:05:58;95335.27;;;19.81;43.42
6851;BME280;3464;42.728;23.296;2023-10-31T04:08:25;95339.91;;;19.83;43.79
6851;BME280;3464;42.728;23.296;2023-10-31T04:10:51;95337.94;;;19.77;43.82
6851;BME280;3464;42.728;23.296;2023-10-31T04:13:17;95334.84;;;19.82;43.84
6851;BME280;3464;42.728;23.296;2023-10-31T04:15:44;95333.52;;;19.83;43.97
6851;BME280;3464;42.728;23.296;2023-10-31T04:18:10;95327.41;;;19.89;43.89
6851;BME280;3464;42.728;23.296;2023-10-31T04:20:37;95322.52;;;19.96;43.74
6851;BME280;3464;42.728;23.296;2023-10-31T04:23:03;95324.66;;;19.96;43.75
6851;BME280;3464;42.728;23.296;2023-10-31T04:25:30;95316.99;;;19.81;44.06
6851;BME280;3464;42.728;23.296;2023-10-31T04:27:56;95320.72;;;19.68;44.12
6851;BME280;3464;42.728;23.296;2023-10-31T04:30:23;95323.03;;;19.61;44.61
6851;BME280;3464;42.728;23.296;2023-10-31T04:32:50;95326.44;;;19.61;44.53
6851;BME280;3464;42.728;23.296;2023-10-31T04:35:16;95329.37;;;19.62;44.28
6851;BME280;3464;42.728;23.296;2023-10-31T04:37:43;95333.05;;;19.85;43.86
6851;BME280;3464;42.728;23.296;2023-10-31T04:40:10;95334.80;;;19.66;44.18
6851;BME280;3464;42.728;23.296;2023-10-31T04:42:38;95335.28;;;19.48;44.39
6851;BME280;3464;42.728;23.296;2023-10-31T04:45:03;95344.08;;;19.37;44.66
6851;BME280;3464;42.728;23.296;2023-10-31T04:47:31;95347.27;;;19.27;44.83
6851;BME280;3464;42.728;23.296;2023-10-31T04:49:58;95351.06;;;19.30;44.90
6851;BME280;3464;42.728;23.296;2023-10-31T04:52:24;95356.86;;;19.86;44.08
6851;BME280;3464;42.728;23.296;2023-10-31T04:54:51;95356.67;;;19.94;43.63
6851;BME280;3464;42.728;23.296;2023-10-31T04:57:18;95352.41;;;19.94;43.61
6851;BME280;3464;42.728;23.296;2023-10-31T04:59:44;95351.33;;;19.86;43.66
6851;BME280;3464;42.728;23.296;2023-10-31T05:02:11;95352.64;;;20.01;43.21
6851;BME280;3464;42.728;23.296;2023-10-31T05:04:38;95343.63;;;20.04;43.19
6851;BME280;3464;42.728;23.296;2023-10-31T05:07:05;95350.78;;;20.07;43.01
6851;BME280;3464;42.728;23.296;2023-10-31T05:09:32;95361.66;;;20.15;43.04
6851;BME280;3464;42.728;23.296;2023-10-31T05:11:58;95344.25;;;19.96;43.26
6851;BME280;3464;42.728;23.296;2023-10-31T05:14:25;95351.02;;;19.97;43.29
6851;BME280;3464;42.728;23.296;2023-10-31T05:16:52;95347.09;;;20.19;43.07
6851;BME280;3464;42.728;23.296;2023-10-31T05:19:18;95340.41;;;20.29;42.87
6851;BME280;3464;42.728;23.296;2023-10-31T05:21:45;95347.27;;;20.43;42.77
6851;BME280;3464;42.728;23.296;2023-10-31T05:24:11;95349.83;;;20.43;42.92
6851;BME280;3464;42.728;23.296;2023-10-31T05:26:39;95348.98;;;20.57;43.16
6851;BME280;3464;42.728;23.296;2023-10-31T05:29:05;95344.64;;;21.17;42.15
6851;BME280;3464;42.728;23.296;2023-10-31T05:31:31;95353.55;;;21.70;41.36
6851;BME280;3464;42.728;23.296;2023-10-31T05:33:58;95362.13;;;22.45;39.93
6851;BME280;3464;42.728;23.296;2023-10-31T05:36:25;95355.00;;;23.20;39.46
6851;BME280;3464;42.728;23.296;2023-10-31T05:38:51;95359.87;;;23.39;38.41
6851;BME280;3464;42.728;23.296;2023-10-31T05:41:18;95358.09;;;24.13;38.06
6851;BME280;3464;42.728;23.296;2023-10-31T05:43:44;95357.25;;;24.61;36.92
6851;BME280;3464;42.728;23.296;2023-10-31T05:46:11;95347.89;;;24.97;36.49
6851;BME280;3464;42.728;23.296;2023-10-31T05:48:38;95361.64;;;25.34;35.97
6851;BME280;3464;42.728;23.296;2023-10-31T05:51:10;95365.14;;;23.99;36.73
6851;BME280;3464;42.728;23.296;2023-10-31T05:53:31;95376.98;;;23.50;37.46
6851;BME280;3464;42.728;23.296;2023-10-31T05:55:58;95377.16;;;23.24;37.91
6851;BME280;3464;42.728;23.296;2023-10-31T05:58:24;95386.91;;;23.03;38.22
6851;BME280;3464;42.728;23.296;2023-10-31T06:00:51;95383.14;;;22.79;38.63
6851;BME280;3464;42.728;23.296;2023-10-31T06:03:17;95380.09;;;23.14;37.92
6851;BME280;3464;42.728;23.296;2023-10-31T06:05:44;95383.66;;;23.64;36.97
6851;BME280;3464;42.728;23.296;2023-10-31T06:08:10;95389.36;;;23.17;37.54
6851;BME280;3464;42.728;23.296;2023-10-31T06:10:37;95389.24;;;23.20;37.62
6851;BME280;3464;42.728;23.296;2023-10-31T06:13:04;95392.69;;;22.26;38.77
6851;BME280;3464;42.728;23.296;2023-10-31T06:15:30;95404.08;;;22.06;39.45
6851;BME280;3464;42.728;23.296;2023-10-31T06:17:57;95398.42;;;21.83;39.83
6851;BME280;3464;42.728;23.296;2023-10-31T06:20:24;95390.70;;;21.71;40.03
6851;BME280;3464;42.728;23.296;2023-10-31T06:22:50;95379.27;;;21.95;39.68
6851;BME280;3464;42.728;23.296;2023-10-31T06:25:17;95386.92;;;22.45;39.16
6851;BME280;3464;42.728;23.296;2023-10-31T06:27:43;95386.05;;;22.57;39.09
6851;BME280;3464;42.728;23.296;2023-10-31T06:30:10;95390.91;;;22.52;39.21
6851;BME280;3464;42.728;23.296;2023-10-31T06:32:37;95391.48;;;22.12;40.09
6851;BME280;3464;42.728;23.296;2023-10-31T06:35:04;95391.94;;;22.48;39.54
6851;BME280;3464;42.728;23.296;2023-10-31T06:37:31;95384.72;;;22.70;39.10
6851;BME280;3464;42.728;23.296;2023-10-31T06:39:57;95380.91;;;22.81;39.11
6851;BME280;3464;42.728;23.296;2023-10-31T06:42:24;95376.55;;;22.36;40.25
6851;BME280;3464;42.728;23.296;2023-10-31T06:44:50;95380.11;;;22.68;39.73
6851;BME280;3464;42.728;23.296;2023-10-31T06:47:17;95370.84;;;22.87;39.50
6851;BME280;3464;42.728;23.296;2023-10-31T06:49:44;95369.58;;;23.08;39.25
6851;BME280;3464;42.728;23.296;2023-10-31T06:52:10;95368.09;;;23.03;39.33
6851;BME280;3464;42.728;23.296;2023-10-31T06:54:37;95365.40;;;23.07;39.35
6851;BME280;3464;42.728;23.296;2023-10-31T06:57:04;95379.98;;;23.28;39.29
6851;BME280;3464;42.728;23.296;2023-10-31T06:59:30;95373.20;;;23.37;39.32
6851;BME280;3464;42.728;23.296;2023-10-31T07:01:57;95377.17;;;23.11;39.83
6851;BME280;3464;42.728;23.296;2023-10-31T07:04:23;95378.91;;;23.34;39.46
6851;BME280;3464;42.728;23.296;2023-10-31T07:06:50;95375.21;;;23.62;39.41
6851;BME280;3464;42.728;23.296;2023-10-31T07:09:16;95370.22;;;23.79;39.29
6851;BME280;3464;42.728;23.296;2023-10-31T07:11:43;95357.70;;;23.60;39.76
6851;BME280;3464;42.728;23.296;2023-10-31T07:14:10;95365.95;;;23.99;39.11
6851;BME280;3464;42.728;23.296;2023-10-31T07:16:36;95362.45;;;24.11;39.04
6851;BME280;3464;42.728;23.296;2023-10-31T07:19:03;95357.97;;;24.06;39.21
6851;BME280;3464;42.728;23.296;2023-10-31T07:21:29;95354.95;;;23.86;39.46
6851;BME280;3464;42.728;23.296;2023-10-31T07:23:56;95352.16;;;24.21;39.36
6851;BME280;3464;42.728;23.296;2023-10-31T07:26:22;95352.98;;;24.22;39.23
6851;BME280;3464;42.728;23.296;2023-10-31T07:28:49;95358.00;;;24.35;38.95
6851;BME280;3464;42.728;23.296;2023-10-31T07:31:15;95354.17;;;24.73;38.92
6851;BME280;3464;42.728;23.296;2023-10-31T07:33:43;95349.04;;;25.10;38.11
6851;BME280;3464;42.728;23.296;2023-10-31T07:36:09;95350.70;;;25.29;37.86
6851;BME280;3464;42.728;23.296;2023-10-31T07:38:35;95337.05;;;25.46;37.60
6851;BME280;3464;42.728;23.296;2023-10-31T07:41:02;95343.22;;;25.42;37.63
6851;BME280;3464;42.728;23.296;2023-10-31T07:43:29;95344.45;;;25.35;37.66
6851;BME280;3464;42.728;23.296;2023-10-31T07:45:56;95335.14;;;25.49;37.66
6851;BME280;3464;42.728;23.296;2023-10-31T07:48:22;95333.05;;;25.83;37.26
6851;BME280;3464;42.728;23.296;2023-10-31T07:50:51;95327.86;;;25.31;38.20
6851;BME280;3464;42.728;23.296;2023-10-31T07:53:18;95327.56;;;25.19;38.64
6851;BME280;3464;42.728;23.296;2023-10-31T07:55:44;95326.59;;;25.21;38.68
6851;BME280;3464;42.728;23.296;2023-10-31T07:58:11;95317.53;;;25.66;38.08
6851;BME280;3464;42.728;23.296;2023-10-31T08:00:38;95308.30;;;26.05;37.61
6851;BME280;3464;42.728;23.296;2023-10-31T08:03:04;95303.66;;;26.44;36.90
6851;BME280;3464;42.728;23.296;2023-10-31T08:05:31;95313.82;;;25.98;37.89
6851;BME280;3464;42.728;23.296;2023-10-31T08:07:57;95313.03;;;26.30;37.57
6851;BME280;3464;42.728;23.296;2023-10-31T08:10:24;95310.38;;;26.31;37.26
6851;BME280;3464;42.728;23.296;2023-10-31T08:12:50;95311.34;;;26.13;37.68
6851;BME280;3464;42.728;23.296;2023-10-31T08:15:17;95304.87;;;26.46;37.14
6851;BME280;3464;42.728;23.296;2023-10-31T08:17:43;95306.80;;;26.42;37.25
6851;BME280;3464;42.728;23.296;2023-10-31T08:20:10;95301.70;;;26.65;37.08
6851;BME280;3464;42.728;23.296;2023-10-31T08:22:38;95291.03;;;26.64;36.96
6851;BME280;3464;42.728;23.296;2023-10-31T08:25:04;95287.25;;;26.85;36.60
6851;BME280;3464;42.728;23.296;2023-10-31T08:27:31;95276.19;;;26.83;36.54
6851;BME280;3464;42.728;23.296;2023-10-31T08:29:57;95272.75;;;26.75;36.90
6851;BME280;3464;42.728;23.296;2023-10-31T08:32:24;95264.06;;;27.07;36.41
6851;BME280;3464;42.728;23.296;2023-10-31T08:34:50;95269.90;;;26.95;36.60
6851;BME280;3464;42.728;23.296;2023-10-31T08:37:17;95272.12;;;27.02;36.55
6851;BME280;3464;42.728;23.296;2023-10-31T08:39:43;95265.34;;;26.85;36.75
6851;BME280;3464;42.728;23.296;2023-10-31T08:42:10;95258.30;;;27.18;36.91
6851;BME280;3464;42.728;23.296;2023-10-31T08:44:36;95252.66;;;27.27;36.83
6851;BME280;3464;42.728;23.296;2023-10-31T08:47:04;95247.35;;;27.44;36.49
6851;BME280;3464;42.728;23.296;2023-10-31T08:49:30;95238.34;;;27.73;36.30
6851;BME280;3464;42.728;23.296;2023-10-31T08:52:00;95233.96;;;27.81;36.00
6851;BME280;3464;42.728;23.296;2023-10-31T08:54:26;95226.97;;;27.68;36.21
6851;BME280;3464;42.728;23.296;2023-10-31T08:56:53;95223.61;;;28.10;35.63
6851;BME280;3464;42.728;23.296;2023-10-31T08:59:19;95226.82;;;27.70;36.03
6851;BME280;3464;42.728;23.296;2023-10-31T09:01:46;95227.07;;;27.52;36.19
6851;BME280;3464;42.728;23.296;2023-10-31T09:04:13;95224.75;;;27.47;36.29
6851;BME280;3464;42.728;23.296;2023-10-31T09:06:40;95212.84;;;26.84;37.27
6851;BME280;3464;42.728;23.296;2023-10-31T09:09:06;95204.63;;;26.14;38.58
6851;BME280;3464;42.728;23.296;2023-10-31T09:11:33;95203.52;;;26.19;38.31
6851;BME280;3464;42.728;23.296;2023-10-31T09:14:00;95204.12;;;27.16;37.04
6851;BME280;3464;42.728;23.296;2023-10-31T09:16:26;95193.83;;;26.85;37.32
6851;BME280;3464;42.728;23.296;2023-10-31T09:18:53;95195.30;;;27.13;36.97
6851;BME280;3464;42.728;23.296;2023-10-31T09:21:19;95189.31;;;26.66;37.49
6851;BME280;3464;42.728;23.296;2023-10-31T09:23:46;95189.83;;;27.62;36.20
6851;BME280;3464;42.728;23.296;2023-10-31T09:26:12;95180.17;;;27.65;36.29
6851;BME280;3464;42.728;23.296;2023-10-31T09:28:39;95166.00;;;28.48;35.09
6851;BME280;3464;42.728;23.296;2023-10-31T09:31:05;95165.92;;;27.73;35.74
6851;BME280;3464;42.728;23.296;2023-10-31T09:33:32;95168.78;;;28.24;35.13
6851;BME280;3464;42.728;23.296;2023-10-31T09:35:58;95162.03;;;27.88;35.69
6851;BME280;3464;42.728;23.296;2023-10-31T09:38:25;95151.73;;;28.55;34.80
6851;BME280;3464;42.728;23.296;2023-10-31T09:40:51;95148.41;;;27.77;35.68
6851;BME280;3464;42.728;23.296;2023-10-31T09:43:18;95141.45;;;28.06;35.53
6851;BME280;3464;42.728;23.296;2023-10-31T09:45:44;95141.59;;;28.11;35.18
6851;BME280;3464;42.728;23.296;2023-10-31T09:48:11;95130.02;;;28.77;34.52
6851;BME280;3464;42.728;23.296;2023-10-31T09:50:38;95128.88;;;28.89;34.35
6851;BME280;3464;42.728;23.296;2023-10-31T09:53:05;95118.01;;;29.02;33.74
6851;BME280;3464;42.728;23.296;2023-10-31T09:55:31;95126.38;;;28.87;34.29
6851;BME280;3464;42.728;23.296;2023-10-31T09:57:58;95112.12;;;28.93;34.08
6851;BME280;3464;42.728;23.296;2023-10-31T10:00:24;95106.43;;;28.88;34.51
6851;BME280;3464;42.728;23.296;2023-10-31T10:02:51;95106.03;;;28.94;34.16
6851;BME280;3464;42.728;23.296;2023-10-31T10:05:17;95089.70;;;29.13;34.18
6851;BME280;3464;42.728;23.296;2023-10-31T10:07:44;95084.16;;;29.12;34.35
6851;BME280;3464;42.728;23.296;2023-10-31T10:10:12;95075.78;;;29.39;33.85
6851;BME280;3464;42.728;23.296;2023-10-31T10:12:46;95073.14;;;29.53;33.42
6851;BME280;3464;42.728;23.296;2023-10-31T10:15:12;95072.41;;;29.76;32.94
6851;BME280;3464;42.728;23.296;2023-10-31T10:17:41;95065.52;;;28.60;34.18
6851;BME280;3464;42.728;23.296;2023-10-31T10:20:13;95054.87;;;29.79;33.00
6851;BME280;3464;42.728;23.296;2023-10-31T10:22:46;95057.05;;;30.57;32.08
6851;BME280;3464;42.728;23.296;2023-10-31T10:25:20;95058.98;;;31.24;31.24
6851;BME280;3464;42.728;23.296;2023-10-31T10:27:51;95046.70;;;31.71;30.06
6851;BME280;3464;42.728;23.296;2023-10-31T10:30:18;95048.31;;;31.67;30.08
6851;BME280;3464;42.728;23.296;2023-10-31T10:32:49;95046.81;;;31.02;30.70
6851;BME280;3464;42.728;23.296;2023-10-31T10:35:18;95042.44;;;31.53;30.17
6851;BME280;3464;42.728;23.296;2023-10-31T10:37:46;95041.70;;;31.06;30.76
6851;BME280;3464;42.728;23.296;2023-10-31T10:40:16;95038.33;;;31.67;29.94
6851;BME280;3464;42.728;23.296;2023-10-31T10:42:46;95028.44;;;32.31;29.37
6851;BME280;3464;42.728;23.296;2023-10-31T10:45:14;95018.17;;;32.46;28.86
6851;BME280;3464;42.728;23.296;2023-10-31T10:47:40;95010.91;;;32.28;28.75
6851;BME280;3464;42.728;23.296;2023-10-31T10:50:07;94998.47;;;32.31;28.17
6851;BME280;3464;42.728;23.296;2023-10-31T10:52:36;95000.59;;;31.45;29.42
6851;BME280;3464;42.728;23.296;2023-10-31T10:58:08;94989.81;;;31.94;28.89
6851;BME280;3464;42.728;23.296;2023-10-31T11:00:35;94987.99;;;32.11;28.40
6851;BME280;3464;42.728;23.296;2023-10-31T11:03:02;94992.64;;;32.66;28.04
6851;BME280;3464;42.728;23.296;2023-10-31T11:05:29;94988.22;;;32.56;28.05
6851;BME280;3464;42.728;23.296;2023-10-31T11:07:56;94983.94;;;32.60;28.00
6851;BME280;3464;42.728;23.296;2023-10-31T11:10:23;94972.28;;;33.06;27.21
6851;BME280;3464;42.728;23.296;2023-10-31T11:12:49;94976.33;;;32.63;27.61
6851;BME280;3464;42.728;23.296;2023-10-31T11:15:18;94964.86;;;32.70;27.35
6851;BME280;3464;42.728;23.296;2023-10-31T11:17:46;94960.80;;;33.33;26.55
6851;BME280;3464;42.728;23.296;2023-10-31T11:20:13;94953.65;;;33.26;26.82
6851;BME280;3464;42.728;23.296;2023-10-31T11:22:42;94944.17;;;32.74;26.85
6851;BME280;3464;42.728;23.296;2023-10-31T11:25:09;94939.48;;;33.24;26.00
6851;BME280;3464;42.728;23.296;2023-10-31T11:27:35;94940.77;;;33.69;25.65
6851;BME280;3464;42.728;23.296;2023-10-31T11:30:05;94938.69;;;34.07;25.40
6851;BME280;3464;42.728;23.296;2023-10-31T11:32:32;94925.57;;;33.44;25.17
6851;BME280;3464;42.728;23.296;2023-10-31T11:34:59;94923.75;;;33.35;25.32
6851;BME280;3464;42.728;23.296;2023-10-31T11:37:25;94917.61;;;33.15;25.59
6851;BME280;3464;42.728;23.296;2023-10-31T11:42:31;94914.55;;;34.19;24.73
6851;BME280;3464;42.728;23.296;2023-10-31T11:44:57;94909.00;;;34.18;24.81
6851;BME280;3464;42.728;23.296;2023-10-31T11:47:24;94902.36;;;34.38;24.89
6851;BME280;3464;42.728;23.296;2023-10-31T11:49:50;94907.20;;;34.75;24.29
6851;BME280;3464;42.728;23.296;2023-10-31T11:52:17;94907.20;;;33.94;23.89
6851;BME280;3464;42.728;23.296;2023-10-31T11:54:43;94899.45;;;33.79;24.22
6851;BME280;3464;42.728;23.296;2023-10-31T11:57:25;94898.22;;;34.50;24.08
6851;BME280;3464;42.728;23.296;2023-10-31T11:59:38;94892.59;;;34.78;23.62
6851;BME280;3464;42.728;23.296;2023-10-31T12:02:13;94892.91;;;34.27;23.94
6851;BME280;3464;42.728;23.296;2023-10-31T12:04:40;94895.45;;;33.99;24.23
6851;BME280;3464;42.728;23.296;2023-10-31T12:07:08;94882.33;;;34.09;24.21
6851;BME280;3464;42.728;23.296;2023-10-31T12:09:45;94869.94;;;34.54;23.73
6851;BME280;3464;42.728;23.296;2023-10-31T12:12:00;94865.59;;;34.35;23.48
6851;BME280;3464;42.728;23.296;2023-10-31T12:14:27;94864.70;;;34.30;23.52
6851;BME280;3464;42.728;23.296;2023-10-31T12:16:53;94861.59;;;34.60;23.38
6851;BME280;3464;42.728;23.296;2023-10-31T12:19:20;94859.39;;;34.69;23.05
6851;BME280;3464;42.728;23.296;2023-10-31T12:21:46;94867.61;;;34.74;23.25
6851;BME280;3464;42.728;23.296;2023-10-31T12:24:13;94862.46;;;34.78;22.93
6851;BME280;3464;42.728;23.296;2023-10-31T12:26:39;94861.26;;;34.82;23.08
6851;BME280;3464;42.728;23.296;2023-10-31T12:29:14;94865.19;;;35.28;22.71
6851;BME280;3464;42.728;23.296;2023-10-31T12:31:51;94848.73;;;35.31;22.83
6851;BME280;3464;42.728;23.296;2023-10-31T12:34:19;94848.81;;;35.58;22.35
6851;BME280;3464;42.728;23.296;2023-10-31T12:36:45;94841.36;;;35.75;22.18
6851;BME280;3464;42.728;23.296;2023-10-31T12:39:11;94831.98;;;35.60;22.25
6851;BME280;3464;42.728;23.296;2023-10-31T12:41:38;94827.16;;;35.01;22.53
6851;BME280;3464;42.728;23.296;2023-10-31T12:44:05;94820.58;;;34.97;22.79
6851;BME280;3464;42.728;23.296;2023-10-31T12:46:31;94813.94;;;34.80;22.96
6851;BME280;3464;42.728;23.296;2023-10-31T12:48:59;94808.95;;;34.21;23.54
6851;BME280;3464;42.728;23.296;2023-10-31T12:51:25;94816.36;;;33.78;24.28
6851;BME280;3464;42.728;23.296;2023-10-31T12:53:52;94820.08;;;33.76;23.97
6851;BME280;3464;42.728;23.296;2023-10-31T12:58:59;94831.44;;;33.90;23.98
6851;BME280;3464;42.728;23.296;2023-10-31T13:01:25;94831.92;;;33.99;24.01
6851;BME280;3464;42.728;23.296;2023-10-31T13:03:52;94835.12;;;33.82;24.24
6851;BME280;3464;42.728;23.296;2023-10-31T13:06:18;94838.55;;;33.64;24.47
6851;BME280;3464;42.728;23.296;2023-10-31T13:08:45;94834.64;;;33.44;24.69
6851;BME280;3464;42.728;23.296;2023-10-31T13:11:13;94820.72;;;32.69;25.40
6851;BME280;3464;42.728;23.296;2023-10-31T13:13:55;94816.59;;;33.27;24.88
6851;BME280;3464;42.728;23.296;2023-10-31T13:16:21;94821.23;;;33.23;25.02